Wanze, Belgium
Current Conditions -  °F | °C
As of 9:20 AM on Friday 19 Dec 2014 (Local Time) from EBLG Reporting Station
Light Rain Light Rain  
Wind Chill: 50°   Ceiling: 2200
Heat Index: 50°   Visibility: 3mi
Dew Point: 46°   Wind: 23mph
Humidity: 87%   Direction: 220°SW
Pressure: 29.88"   Gusts: NA
Location:  50.54°N, 5.21°E
Report Text: EBLG 190820Z 22020KT 5000 -RA SCT011 BKN022 10/08 Q1012 TEMPO BKN006
Loading
Personal Weather Stations






























Interactive Weather Map New forecast layout! Learn more

10-Day Weather Forecast

Advertisements
Track Severe Weather on mobile